Terminal Aerodrome Forecast
Issued by NWS St Louis, MO

Home | Current Version | Previous Version | Text Only | Print | Product List | Glossary On
Versions: 1 2 3 4 5 6 7 8 9 10 11 12 13 14 15 16 17 18 19 20 21 22 23 24 25 26 27
034
FTUS43 KLSX 112110 AAA
TAFSTL
TAF AMD
KSTL 112110Z 1121/1224 08005KT P6SM BKN150
     FM120400 10004KT 2SM -SN BR OVC015
     FM121000 VRB03KT 4SM BR SCT015 OVC025
     FM121700 31010KT P6SM BKN025=

USA.gov is the U.S. government's official web portal to all federal, state and local government web resources and services.